Latest Coastal Weather Observations for Portland Airport

IDS60701

Issued at 10:45 pm CDT Friday 24 October 2014 (issued every 10 minutes, with the page automatically refreshed every 10 minutes)

About coastal observations | Map of coastal stations | Coastal observations for SA | Marine services | Other Formats
Station Details ID: 090171 Name: CASHMORE AIRPORT Lat: -38.31 Lon: 141.47 Height: 80.9 m
Data from the previous 72 hours. | See also: Recent months at Portland Airport
Date/Time
CDT
Temp

°C
Wind Pressure Rain
since 9am
mm
Weather Cloud Vis
km
Sea
Height
m
Swell
Dir
 
Speed
knots
Gust
knots
hPa Trend Height
m
Period
s
Dir
24/10:30pm 13.3 SSW 7 11 1017.1 - 0.0 - Cloudy 10 - - - -
24/10:00pm 13.4 SW 8 11 1016.9 - 0.0 - Cloudy 10 - - - -
24/09:30pm 13.4 SW 8 11 1016.7 - 0.0 - Cloudy 10 - - - -
24/09:22pm 13.2 WSW 8 11 1016.7 - 0.0 - Cloudy 10 - - - -
24/09:00pm 13.2 SW 7 9 1016.4 - 0.0 - Cloudy 10 - - - -
24/08:45pm 13.2 WSW 9 14 1016.3 - 0.0 - Cloudy 10 - - - -
24/08:30pm 13.5 WSW 9 13 1016.1 - 0.0 - Cloudy 10 - - - -
24/08:00pm 13.6 W 7 9 1015.7 - 0.0 - Cloudy 10 - - - -
24/07:30pm 13.7 W 9 13 1015.3 - 0.0 - Cloudy 10 - - - -
24/07:00pm 13.8 W 10 13 1015.0 - 0.0 - Cloudy 10 - - - -
24/06:30pm 14.0 W 12 17 1014.5 - 0.0 - Cloudy 10 - - - -
24/06:02pm 14.3 W 12 18 1014.2 - 0.0 - Cloudy 10 - - - -
24/06:00pm 14.4 W 13 18 1014.2 - 0.0 - Cloudy 10 - - - -
24/05:30pm 14.7 W 15 20 1013.7 - 0.0 - Cloudy 10 - - - -
24/05:00pm 15.1 W 16 23 1013.6 - 0.0 - Cloudy 10 - - - -
24/04:30pm 14.6 W 17 24 1013.4 - 0.0 - Cloudy 10 - - - -
24/04:00pm 14.9 W 16 21 1013.3 - 0.0 - Partly cloudy 10 - - - -
24/03:46pm 15.2 W 19 29 1013.1 - 0.0 - Partly cloudy 10 - - - -
24/03:30pm 15.5 W 19 26 1012.9 - 0.0 - Partly cloudy 10 - - - -
24/03:00pm 15.9 WNW 17 23 1012.9 - 0.0 - Cloudy 10 - - - -
24/02:30pm 16.1 W 19 24 1012.7 - 0.0 - Mostly cloudy 10 - - - -
24/02:00pm 16.7 W 17 23 1012.7 - 0.0 - Cloudy 10 - - - -
24/01:30pm 16.7 W 14 20 1012.6 - 0.0 - Partly cloudy 10 - - - -
24/01:00pm 16.0 W 14 20 1012.6 - 0.0 - Cloudy 10 - - - -
24/12:30pm 16.3 W 12 17 1012.6 - 0.0 - Partly cloudy 10 - - - -
24/12:21pm 15.7 WNW 15 21 1012.7 - 0.0 - Cloudy 10 - - - -
24/12:00pm 15.2 W 16 22 1013.0 - 0.0 - Cloudy 10 - - - -
24/11:30am 14.6 W 15 22 1013.1 - 0.0 - Cloudy 4 - - - -
24/11:00am 14.5 W 16 22 1013.1 - 0.0 - Cloudy 1 - - - -
24/10:43am 14.9 W 17 23 1013.2 - 0.0 - Partly cloudy 6 - - - -
24/10:38am 15.6 W 16 20 1013.0 - 0.0 - Partly cloudy 9 - - - -
24/10:30am 16.3 WNW 14 20 1012.9 - 0.0 - Partly cloudy 10 - - - -
24/10:00am 17.3 W 15 21 1012.6 - 0.0 - - 10 - - - -
24/09:43am 17.6 WNW 18 22 1012.6 - 0.0 - - 10 - - - -
24/09:30am 19.1 WNW 8 12 1011.9 - 0.0 - - 10 - - - -
24/09:00am 17.5 WNW 11 16 1011.8 - 0.0 - - 10 - - - -
24/08:34am 15.6 N 4 7 1012.0 - 0.0 - - 10 - - - -
24/08:30am 15.3 N 3 5 1012.1 - 0.0 - Mostly clear 8 - - - -
24/08:00am 13.4 N 4 6 1012.0 - 0.0 - - 4 - - - -
24/07:30am 13.2 NNE 4 6 1012.0 - 0.0 - - 3 - - - -
24/07:00am 12.7 NE 4 5 1011.8 - 0.0 - - 2 - - - -
24/06:30am 12.6 NE 3 4 1011.6 - 0.0 - - 3 - - - -
24/06:00am 12.5 NE 4 5 1011.7 - 0.0 - - 2 - - - -
24/05:30am 12.9 ENE 3 5 1011.4 - 0.0 - Cloudy 4 - - - -
24/05:00am 13.0 NE 3 5 1011.7 - 0.0 - - 4 - - - -
24/04:30am 13.4 ENE 3 5 1011.6 - 0.0 - - 5 - - - -
24/04:00am 13.4 ENE 4 6 1011.7 - 0.0 - - 5 - - - -
24/03:35am 13.6 ENE 5 7 1011.8 - 0.0 - - 6 - - - -
24/03:30am 13.7 ENE 5 7 1011.8 - 0.0 - - 7 - - - -
24/03:10am 14.2 NE 5 7 1012.0 - 0.0 - Partly cloudy 8 - - - -
24/03:00am 14.4 ENE 5 9 1012.0 - 0.0 - Partly cloudy 9 - - - -
24/02:30am 14.8 NE 7 11 1012.5 - 0.0 - Cloudy 9 - - - -
24/02:00am 14.9 ENE 7 11 1012.8 - 0.0 - Cloudy 9 - - - -
24/01:30am 15.0 ENE 6 9 1013.3 - 0.0 - Cloudy 9 - - - -
24/01:00am 15.1 ENE 7 10 1013.7 - 0.0 - Cloudy 9 - - - -
24/12:30am 14.9 ENE 8 12 1013.9 - 0.0 - Cloudy 9 - - - -
24/12:09am 14.8 E 8 14 1013.9 - 0.0 - Cloudy 8 - - - -
24/12:00am 14.8 ENE 8 12 1014.0 - 0.0 - Cloudy 7 - - - -
 
Date/Time
CDT
Temp

°C
Wind Pressure Rain
since 9am
mm
Weather Cloud Vis
km
Sea
Height
m
Swell
Dir
 
Speed
knots
Gust
knots
hPa Trend Height
m
Period
s
Dir
23/11:30pm 14.6 ENE 6 10 1014.5 - 0.0 - Cloudy 5 - - - -
23/11:00pm 14.3 ENE 7 10 1015.1 - 0.0 - Cloudy 6 - - - -
23/10:30pm 13.7 ENE 6 9 1015.2 - 0.0 - Partly cloudy 5 - - - -
23/10:27pm 13.6 ENE 6 9 1015.2 - 0.0 - Partly cloudy 5 - - - -
23/10:06pm 13.3 ENE 5 8 1015.5 - 0.0 - - 6 - - - -
23/10:00pm 13.4 ENE 5 8 1015.6 - 0.0 - - 7 - - - -
23/09:55pm 13.3 ENE 5 8 1015.5 - 0.0 - - 7 - - - -
23/09:50pm 13.4 ENE 5 8 1015.5 - 0.0 - Partly cloudy 7 - - - -
23/09:30pm 13.3 E 6 8 1015.3 - 0.0 - Partly cloudy 5 - - - -
23/09:00pm 12.5 E 5 6 1015.6 - 0.0 - Cloudy 6 - - - -
23/08:49pm 12.4 E 5 6 1015.8 - 0.0 - Partly cloudy 6 - - - -
23/08:38pm 12.3 ESE 5 7 1015.8 - 0.0 - Partly cloudy 7 - - - -
23/08:30pm 12.4 ESE 5 7 1015.7 - 0.0 - Partly cloudy 7 - - - -
23/08:08pm 12.6 ESE 4 6 1015.7 - 0.0 - Partly cloudy 8 - - - -
23/08:00pm 12.8 ESE 4 6 1015.7 - 0.0 - Partly cloudy 9 - - - -
23/07:51pm 13.0 ESE 4 6 1015.8 - 0.0 - Partly cloudy 10 - - - -
23/07:43pm 13.1 ESE 5 7 1015.7 - 0.0 - Partly cloudy 10 - - - -
23/07:30pm 13.4 ESE 6 9 1015.6 - 0.0 - Partly cloudy 10 - - - -
23/07:00pm 14.1 ESE 8 11 1015.9 - 0.0 - Cloudy 10 - - - -
23/06:30pm 14.3 ESE 7 11 1016.1 - 0.0 - Cloudy 10 - - - -
23/06:00pm 14.6 ESE 7 11 1016.1 - 0.0 - Cloudy 10 - - - -
23/05:30pm 14.6 ESE 10 14 1016.1 - 0.0 - Cloudy 10 - - - -
23/05:00pm 14.8 ESE 9 13 1016.2 - 0.0 - Cloudy 10 - - - -
23/04:30pm 15.2 ESE 10 14 1016.3 - 0.0 - Cloudy 10 - - - -
23/04:00pm 14.8 ESE 10 15 1016.5 - 0.0 - Cloudy 10 - - - -
23/03:30pm 14.7 SE 13 18 1016.7 - 0.0 - Cloudy 10 - - - -
23/03:00pm 15.2 SE 11 17 1017.5 - 0.0 - Cloudy 10 - - - -
23/02:30pm 14.9 ESE 10 14 1017.6 - 0.0 - Cloudy 10 - - - -
23/02:00pm 14.7 ESE 10 17 1018.0 - 0.0 - Cloudy 10 - - - -
23/01:30pm 14.3 ESE 11 16 1018.3 - 0.0 - Cloudy 10 - - - -
23/01:00pm 14.2 E 11 17 1018.7 - 0.0 - Cloudy 10 - - - -
23/12:30pm 14.3 E 12 17 1019.1 - 0.0 - Cloudy 10 - - - -
23/12:00pm 14.0 ESE 11 19 1019.5 - 0.0 - Cloudy 10 - - - -
23/11:30am 13.9 ESE 11 18 1019.7 - 0.0 - Cloudy 10 - - - -
23/11:00am 13.6 ESE 13 20 1020.0 - 0.0 - Cloudy 10 - - - -
23/10:30am 13.6 ESE 11 17 1020.4 - 0.0 - Partly cloudy 10 - - - -
23/10:00am 12.7 SE 14 22 1020.6 - 0.0 - Cloudy 10 - - - -
23/09:52am 12.8 SE 14 21 1020.6 - 0.0 - Partly cloudy 10 - - - -
23/09:30am 13.0 ESE 13 21 1020.7 - 0.0 - Partly cloudy 5 - - - -
23/09:28am 13.0 ESE 14 21 1020.8 - 0.0 - Partly cloudy 6 - - - -
23/09:00am 12.6 ESE 13 18 1020.9 - 0.0 - Cloudy 10 - - - -
23/08:30am 12.5 SE 12 19 1021.0 - 0.0 - Cloudy 10 - - - -
23/08:00am 12.6 ESE 11 16 1020.9 - 0.0 - Cloudy 10 - - - -
23/07:30am 12.5 SE 11 17 1020.9 - 0.0 - Partly cloudy 9 - - - -
23/07:00am 12.4 ESE 10 16 1020.9 - 0.0 - Cloudy 10 - - - -
23/06:30am 12.3 ESE 10 16 1020.8 - 0.0 - Partly cloudy 10 - - - -
23/06:00am 12.6 SE 11 15 1020.5 - 0.0 - Cloudy 10 - - - -
23/05:30am 12.6 SE 11 15 1020.4 - 0.0 - Cloudy 10 - - - -
23/05:00am 12.5 SE 12 16 1020.5 - 0.0 - Partly cloudy 10 - - - -
23/04:48am 12.6 SE 11 15 1020.3 - 0.0 - Cloudy 10 - - - -
23/04:30am 12.4 SE 10 15 1020.3 - 0.0 - Cloudy 10 - - - -
23/04:00am 12.4 SE 11 15 1020.4 - 0.0 - Partly cloudy 10 - - - -
23/03:53am 12.3 SE 11 15 1020.3 - 0.0 - Partly cloudy 10 - - - -
23/03:43am 12.4 SE 9 13 1020.4 - 0.0 - Partly cloudy 10 - - - -
23/03:30am 12.4 SE 11 15 1020.5 - 0.0 - Partly cloudy 6 - - - -
23/03:29am 12.5 SE 11 15 1020.5 - 0.0 - Partly cloudy 6 - - - -
23/03:28am 12.5 SE 11 15 1020.5 - 0.0 - Partly cloudy 6 - - - -
23/03:13am 12.4 SE 10 14 1020.5 - 0.0 - Partly cloudy 10 - - - -
23/03:04am 12.4 SE 10 14 1020.4 - 0.0 - Partly cloudy 10 - - - -
23/03:00am 12.4 SE 9 14 1020.5 - 0.0 - Partly cloudy 8 - - - -
23/02:53am 12.4 SE 10 17 1020.5 - 0.0 - Partly cloudy 6 - - - -
23/02:51am 12.4 SE 10 17 1020.5 - 0.0 - Partly cloudy 7 - - - -
23/02:30am 12.6 SE 10 14 1020.8 - 0.0 - Cloudy 6 - - - -
23/02:27am 12.6 SE 9 14 1020.8 - 0.0 - Partly cloudy 6 - - - -
23/02:00am 12.5 SE 8 11 1020.9 - 0.0 - Partly cloudy 10 - - - -
23/01:30am 12.6 SE 9 12 1020.9 - 0.0 - Cloudy 7 - - - -
23/01:00am 12.5 SE 9 12 1020.9 - 0.0 - Cloudy 7 - - - -
23/12:30am 12.5 SSE 9 15 1021.3 - 0.0 - Cloudy 10 - - - -
23/12:00am 12.6 SSE 8 14 1021.3 - 0.0 - Cloudy 7 - - - -
 
Date/Time
CDT
Temp

°C
Wind Pressure Rain
since 9am
mm
Weather Cloud Vis
km
Sea
Height
m
Swell
Dir
 
Speed
knots
Gust
knots
hPa Trend Height
m
Period
s
Dir
22/11:33pm 12.7 SSE 7 12 1021.4 - 0.0 - Cloudy 8 - - - -
22/11:30pm 12.7 SSE 8 13 1021.4 - 0.0 - Cloudy 7 - - - -
22/11:23pm 12.6 SE 9 13 1021.4 - 0.0 - Cloudy 6 - - - -
22/11:04pm 12.9 SE 9 13 1021.4 - 0.0 - Cloudy 8 - - - -
22/11:00pm 12.9 SSE 8 13 1021.4 - 0.0 - Cloudy 8 - - - -
22/10:46pm 13.0 SSE 8 12 1021.3 - 0.0 - Cloudy 6 - - - -
22/10:30pm 13.0 SSE 9 14 1021.3 - 0.0 - Cloudy 7 - - - -
22/10:00pm 13.2 SE 10 16 1021.2 - 0.0 - Cloudy 10 - - - -
22/09:30pm 13.0 SE 11 15 1021.2 - 0.0 - Cloudy 10 - - - -
22/09:00pm 13.0 SSE 9 15 1021.2 - 0.0 - Cloudy 9 - - - -
22/08:30pm 13.2 SSE 9 16 1021.1 - 0.0 - Cloudy 10 - - - -
22/08:00pm 13.2 SSE 9 16 1020.7 - 0.0 - Cloudy 10 - - - -
22/07:30pm 13.4 SSE 9 15 1020.3 - 0.0 - Cloudy 10 - - - -
22/07:00pm 13.5 S 11 17 1019.6 - 0.0 - Cloudy 10 - - - -
22/06:30pm 13.6 S 11 16 1019.2 - 0.0 - Cloudy 10 - - - -
22/06:00pm 13.6 S 10 16 1018.7 - 0.0 - Cloudy 9 - - - -
22/05:30pm 14.1 S 10 16 1018.3 - 0.0 - Cloudy 9 - - - -
22/05:00pm 14.5 S 10 17 1018.1 - 0.0 - Cloudy 10 - - - -
22/04:30pm 14.8 S 10 16 1017.9 - 0.0 - Cloudy 10 - - - -
22/04:00pm 15.0 S 11 16 1018.1 - 0.0 - Cloudy 10 - - - -
22/03:30pm 15.5 SSW 10 17 1018.1 - 0.0 - Cloudy 10 - - - -
22/03:00pm 15.9 SSW 12 19 1018.1 - 0.0 - Cloudy 10 - - - -
22/02:44pm 17.2 SSW 12 18 1018.1 - 0.0 - Partly cloudy 10 - - - -
22/02:30pm 17.0 SSW 11 16 1018.0 - 0.0 - - 10 - - - -
22/02:00pm 17.9 SW 10 14 1018.0 - 0.0 - - 10 - - - -
22/01:30pm 17.7 SSW 11 16 1017.9 - 0.0 - - 10 - - - -
22/01:00pm 20.9 SSW 9 13 1017.4 - 0.0 - - 10 - - - -
22/12:30pm 23.6 WSW 9 12 1017.1 - 0.0 - - 10 - - - -
22/12:00pm 23.4 WSW 11 15 1017.1 - 0.0 - - 10 - - - -
22/11:30am 23.0 WSW 9 13 1017.3 - 0.0 - Mostly cloudy 10 - - - -
22/11:00am 20.3 WSW 10 13 1017.6 - 0.0 - - 10 - - - -
22/10:30am 23.4 WNW 7 11 1017.4 - 0.0 - - 10 - - - -
22/10:00am 23.5 NNW 5 12 1017.3 - 0.0 - Partly cloudy 10 - - - -
22/09:30am 22.8 NE 3 6 1017.3 - 0.0 - - 10 - - - -
22/09:00am 21.0 N 1 4 1017.1 - 0.0 - - 10 - - - -
22/08:30am 19.3 NNE 5 6 1016.9 - 0.0 - Cloudy 10 - - - -
22/08:00am 19.5 W 4 5 1017.1 - 0.0 - - 10 - - - -
22/07:30am 19.5 W 5 6 1017.0 - 0.0 - - 10 - - - -
22/07:00am 17.0 NW 4 5 1016.5 - 0.0 - - 10 - - - -
22/06:30am 15.5 W 6 7 1017.1 - 0.0 - - 10 - - - -
22/06:00am 16.6 W 6 9 1016.9 - 0.0 - - 10 - - - -
22/05:30am 17.7 WNW 8 11 1017.0 - 0.0 - Mostly cloudy 10 - - - -
22/05:00am 19.1 W 10 12 1017.0 - 0.0 - - 10 - - - -
22/04:30am 18.1 N 9 12 1016.4 - 0.0 - - 10 - - - -
22/04:00am 17.1 N 9 11 1016.3 - 0.0 - - 10 - - - -
22/03:30am 16.4 N 8 10 1016.6 - 0.0 - - 10 - - - -
22/03:00am 16.6 N 8 11 1016.7 - 0.0 - - 10 - - - -
22/02:30am 15.7 N 7 10 1016.8 - 0.0 - Cloudy 10 - - - -
22/02:00am 15.7 N 6 8 1017.2 - 0.0 - - 10 - - - -
22/01:30am 14.9 NNE 6 8 1017.5 - 0.0 - - 10 - - - -
22/01:00am 13.9 NE 5 7 1018.2 - 0.0 - - 10 - - - -
22/12:30am 13.4 NE 4 5 1018.5 - 0.0 - - 10 - - - -
22/12:00am 13.0 NE 5 6 1018.8 - 0.0 - - 10 - - - -
 
Date/Time
CDT
Temp

°C
Wind Pressure Rain
since 9am
mm
Weather Cloud Vis
km
Sea
Height
m
Swell
Dir
 
Speed
knots
Gust
knots
hPa Trend Height
m
Period
s
Dir
21/11:30pm 13.2 NE 5 6 1019.2 - 0.0 - Cloudy 10 - - - -
21/11:00pm 12.5 NE 5 5 1019.7 - 0.0 - - 10 - - - -
21/10:30pm 13.6 NE 5 6 1019.9 - 0.0 - - 10 - - - -

Other Formats:

Comma delimited format used in spreadsheet applications
http://www.bom.gov.au/fwo/IDS60701/IDS60701.94828.axf

JavaScript Object Notation format (JSON) in row-major order
http://www.bom.gov.au/fwo/IDS60701/IDS60701.94828.json